createdAt,value
2019-04-16T00:00:11.829Z,99.90
2019-04-16T00:02:44.235Z,99.90
2019-04-16T00:05:15.699Z,99.90
2019-04-16T00:07:47.204Z,99.90
2019-04-16T00:10:19.762Z,99.90
2019-04-16T00:12:54.746Z,99.90
2019-04-16T00:15:24.728Z,99.90
2019-04-16T00:21:44.166Z,99.90
2019-04-16T00:24:18.239Z,99.90
2019-04-16T00:26:47.001Z,99.90
2019-04-16T00:29:19.145Z,99.90
2019-04-16T00:31:50.630Z,99.90
2019-04-16T00:34:20.503Z,99.90
2019-04-16T00:36:53.202Z,99.90
2019-04-16T00:39:24.830Z,99.90
2019-04-16T00:41:54.557Z,99.90
2019-04-16T00:44:29.198Z,99.90
2019-04-16T00:46:59.025Z,99.90
2019-04-16T00:49:28.696Z,99.90
2019-04-16T00:51:58.527Z,99.90
2019-04-16T00:54:28.557Z,99.90
2019-04-16T00:56:58.423Z,99.90
2019-04-16T00:59:29.733Z,99.90
2019-04-16T01:02:00.098Z,99.90
2019-04-16T01:04:29.795Z,99.90
2019-04-16T01:07:00.584Z,99.90
2019-04-16T01:09:34.615Z,99.90
2019-04-16T01:12:05.821Z,99.90
2019-04-16T01:14:35.864Z,99.90
2019-04-16T01:17:05.819Z,99.90
2019-04-16T01:19:35.532Z,99.90
2019-04-16T01:22:16.794Z,99.90
2019-04-16T01:24:52.497Z,99.90
2019-04-16T01:27:22.926Z,99.90
2019-04-16T01:29:54.490Z,99.90
2019-04-16T01:32:28.706Z,99.90
2019-04-16T01:35:00.173Z,99.90
2019-04-16T01:37:31.611Z,99.90
2019-04-16T01:40:04.533Z,99.90
2019-04-16T01:42:35.925Z,99.90
2019-04-16T01:45:07.637Z,99.90
2019-04-16T01:47:37.747Z,99.90
2019-04-16T01:50:10.428Z,99.90
2019-04-16T01:52:41.217Z,99.90
2019-04-16T01:55:11.249Z,99.90
2019-04-16T01:57:41.237Z,99.90
2019-04-16T02:00:12.253Z,99.90
2019-04-16T02:02:43.531Z,99.90
2019-04-16T02:05:16.398Z,99.90
2019-04-16T02:07:46.340Z,99.90
2019-04-16T02:10:16.406Z,99.90
2019-04-16T02:12:46.215Z,99.90
2019-04-16T02:15:16.037Z,99.90
2019-04-16T02:17:46.369Z,99.90
2019-04-16T02:20:17.132Z,99.90
2019-04-16T02:22:47.127Z,99.90
2019-04-16T02:25:20.144Z,99.90
2019-04-16T02:27:49.418Z,99.90
2019-04-16T02:30:19.650Z,99.90
2019-04-16T02:32:49.460Z,99.90
2019-04-16T02:35:20.666Z,99.90
2019-04-16T02:37:50.570Z,99.90
2019-04-16T02:40:20.681Z,99.90
2019-04-16T02:42:51.571Z,99.90
2019-04-16T02:45:23.478Z,99.90
2019-04-16T02:47:52.827Z,99.90
2019-04-16T02:50:30.232Z,99.90
2019-04-16T02:52:57.672Z,99.90
2019-04-16T02:55:29.235Z,99.90
2019-04-16T02:58:01.894Z,99.90
2019-04-16T03:00:33.959Z,99.90
2019-04-16T03:03:05.601Z,99.90
2019-04-16T03:05:37.050Z,99.90
2019-04-16T03:08:06.864Z,99.90
2019-04-16T03:10:36.756Z,99.90
2019-04-16T03:13:07.647Z,99.90
2019-04-16T03:15:40.610Z,99.90
2019-04-16T03:18:14.149Z,99.90
2019-04-16T03:20:42.983Z,99.90
2019-04-16T03:23:13.213Z,99.90
2019-04-16T03:25:45.086Z,99.90
2019-04-16T03:28:14.644Z,99.90
2019-04-16T03:30:46.210Z,99.90
2019-04-16T03:33:16.584Z,99.90
2019-04-16T03:35:47.695Z,99.90
2019-04-16T03:38:17.448Z,99.90
2019-04-16T03:40:49.067Z,99.90
2019-04-16T03:43:20.876Z,99.90
2019-04-16T03:45:53.613Z,99.90
2019-04-16T03:48:24.606Z,99.90
2019-04-16T03:50:55.795Z,99.90
2019-04-16T03:53:27.387Z,99.90
2019-04-16T03:55:59.144Z,99.90
2019-04-16T03:58:32.047Z,99.90
2019-04-16T04:01:04.300Z,99.90
2019-04-16T04:03:38.285Z,99.90
2019-04-16T04:06:08.448Z,99.90
2019-04-16T04:08:38.312Z,99.90
2019-04-16T04:11:10.400Z,99.90
2019-04-16T04:13:39.951Z,99.90
2019-04-16T04:16:10.029Z,99.90
2019-04-16T04:18:42.909Z,99.90
2019-04-16T04:21:11.289Z,99.90
2019-04-16T04:23:41.468Z,99.90
2019-04-16T04:26:12.665Z,99.90
2019-04-16T04:28:43.891Z,99.90
2019-04-16T04:31:15.194Z,99.90
2019-04-16T04:33:45.485Z,99.90
2019-04-16T04:36:18.753Z,99.90
2019-04-16T04:38:47.400Z,99.90
2019-04-16T04:41:19.920Z,99.90
2019-04-16T04:43:51.175Z,99.90
2019-04-16T04:46:20.992Z,99.90
2019-04-16T04:48:54.996Z,99.90
2019-04-16T04:51:22.367Z,99.90
2019-04-16T04:53:52.115Z,99.90
2019-04-16T04:56:21.907Z,99.90
2019-04-16T04:58:54.944Z,99.90
2019-04-16T05:01:24.703Z,99.90
2019-04-16T05:03:56.053Z,99.90
2019-04-16T05:06:28.024Z,99.90
2019-04-16T05:09:00.401Z,99.90
2019-04-16T05:11:29.476Z,99.90
2019-04-16T05:13:59.201Z,99.90
2019-04-16T05:16:31.472Z,99.90
2019-04-16T05:19:01.614Z,99.90
2019-04-16T05:21:31.400Z,99.90
2019-04-16T05:24:05.938Z,99.90
2019-04-16T05:26:39.106Z,99.90
2019-04-16T05:29:10.460Z,99.90
2019-04-16T05:31:41.569Z,99.90
2019-04-16T05:34:13.129Z,99.90
2019-04-16T05:36:46.303Z,99.90
2019-04-16T05:39:14.445Z,99.90
2019-04-16T05:41:44.303Z,99.90
2019-04-16T05:44:14.931Z,99.90
2019-04-16T05:46:46.848Z,99.90
2019-04-16T05:49:16.781Z,99.90
2019-04-16T05:51:46.545Z,99.90
2019-04-16T05:54:17.867Z,99.90
2019-04-16T05:56:49.217Z,99.90
2019-04-16T05:59:33.446Z,99.90
2019-04-16T06:02:01.833Z,99.90
2019-04-16T06:07:21.815Z,99.90
2019-04-16T06:14:40.499Z,99.90
2019-04-16T06:21:02.398Z,99.90
2019-04-16T06:30:33.818Z,99.90
2019-04-16T06:36:01.938Z,99.90
2019-04-16T06:38:39.408Z,99.90
2019-04-16T06:41:14.044Z,99.90
2019-04-16T06:43:52.024Z,99.90
2019-04-16T06:46:23.954Z,99.90
2019-04-16T06:48:55.713Z,99.90
2019-04-16T06:51:34.745Z,99.90
2019-04-16T06:54:06.241Z,99.90
2019-04-16T06:56:40.335Z,99.90
2019-04-16T06:59:10.847Z,99.90
2019-04-16T07:01:42.535Z,99.90
2019-04-16T07:04:14.019Z,99.90
2019-04-16T07:06:45.762Z,99.90
2019-04-16T07:09:17.146Z,99.90
2019-04-16T07:11:54.594Z,99.90
2019-04-16T07:14:19.959Z,99.90
2019-04-16T07:16:49.751Z,99.90
2019-04-16T07:19:19.354Z,99.90
2019-04-16T07:21:49.938Z,99.90
2019-04-16T07:24:22.734Z,99.90
2019-04-16T07:26:51.215Z,99.90
2019-04-16T07:29:22.642Z,99.90
2019-04-16T07:31:54.393Z,99.90
2019-04-16T07:34:26.958Z,99.90
2019-04-16T07:37:00.467Z,99.90
2019-04-16T07:39:36.872Z,99.90
2019-04-16T07:42:11.140Z,99.90
2019-04-16T07:44:41.271Z,99.90
2019-04-16T07:47:12.573Z,99.90
2019-04-16T07:50:00.463Z,99.90
2019-04-16T07:52:33.200Z,99.90
2019-04-16T07:55:04.709Z,99.90
2019-04-16T07:57:34.518Z,99.90
2019-04-16T08:00:09.895Z,99.90
2019-04-16T08:02:39.702Z,99.90
2019-04-16T08:05:09.922Z,99.90
2019-04-16T08:07:39.687Z,99.90
2019-04-16T08:10:09.563Z,99.90
2019-04-16T08:12:42.360Z,99.90
2019-04-16T08:15:15.003Z,99.90
2019-04-16T08:17:43.948Z,99.90
2019-04-16T08:20:13.987Z,99.90
2019-04-16T08:22:47.244Z,99.90
2019-04-16T08:25:16.797Z,99.90
2019-04-16T08:27:47.285Z,99.90
2019-04-16T08:30:17.852Z,99.90
2019-04-16T08:32:48.876Z,99.90
2019-04-16T08:35:19.215Z,99.90
2019-04-16T08:37:49.626Z,99.90
2019-04-16T08:40:19.385Z,99.90
2019-04-16T08:42:49.060Z,99.90
2019-04-16T08:45:20.641Z,99.90
2019-04-16T08:47:50.247Z,99.90
2019-04-16T08:50:19.964Z,99.90
2019-04-16T08:52:49.643Z,99.90
2019-04-16T08:55:20.454Z,99.90
2019-04-16T08:57:50.835Z,99.90
2019-04-16T09:00:22.930Z,99.90
2019-04-16T09:02:57.734Z,99.90
2019-04-16T09:05:24.125Z,99.90
2019-04-16T09:08:10.893Z,99.90
2019-04-16T09:10:30.921Z,99.90
2019-04-16T09:13:04.799Z,99.90
2019-04-16T09:15:35.519Z,99.90
2019-04-16T09:18:07.060Z,99.90
2019-04-16T09:20:38.466Z,99.90
2019-04-16T09:23:08.469Z,99.90
2019-04-16T09:25:42.522Z,99.90
2019-04-16T09:28:24.540Z,99.90
2019-04-16T09:30:46.677Z,99.90
2019-04-16T09:33:17.239Z,99.90
2019-04-16T09:35:48.583Z,99.90
2019-04-16T09:38:19.994Z,99.90
2019-04-16T09:40:51.483Z,99.90
2019-04-16T09:43:22.865Z,99.90
2019-04-16T09:45:52.443Z,99.90
2019-04-16T09:48:22.309Z,99.90
2019-04-16T09:50:52.049Z,99.90
2019-04-16T09:53:32.595Z,99.90
2019-04-16T09:55:54.649Z,99.90
2019-04-16T09:58:25.497Z,99.90
2019-04-16T10:00:56.861Z,99.90
2019-04-16T10:03:29.148Z,99.90
2019-04-16T10:05:58.950Z,99.90
2019-04-16T10:08:29.496Z,99.90
2019-04-16T10:11:02.673Z,99.90
2019-04-16T10:13:35.479Z,99.90
2019-04-16T10:16:02.051Z,99.90
2019-04-16T10:18:34.710Z,99.90
2019-04-16T10:21:03.619Z,99.90
2019-04-16T10:23:34.971Z,99.90
2019-04-16T10:26:05.368Z,99.90
2019-04-16T10:28:37.097Z,99.90
2019-04-16T10:31:07.678Z,99.90
2019-04-16T10:33:37.384Z,99.90
2019-04-16T10:36:07.214Z,99.90
2019-04-16T10:38:36.649Z,99.90
2019-04-16T10:41:08.172Z,99.90
2019-04-16T10:43:44.704Z,99.90
2019-04-16T10:46:13.621Z,99.90
2019-04-16T10:48:44.989Z,99.90
2019-04-16T10:51:16.365Z,98.80
2019-04-16T10:53:45.808Z,99.90
2019-04-16T10:56:20.753Z,96.90
2019-04-16T10:58:50.079Z,98.90
2019-04-16T11:01:21.500Z,99.90
2019-04-16T11:03:52.954Z,97.60
2019-04-16T11:06:25.439Z,99.90
2019-04-16T11:08:55.473Z,96.40
2019-04-16T11:11:26.686Z,96.60
2019-04-16T11:13:59.981Z,95.80
2019-04-16T11:16:27.765Z,97.50
2019-04-16T11:18:57.591Z,98.60
2019-04-16T11:21:27.466Z,99.90
2019-04-16T11:23:59.574Z,98.60
2019-04-16T11:26:29.356Z,99.90
2019-04-16T11:28:59.010Z,98.90
2019-04-16T11:31:28.831Z,99.70
2019-04-16T11:33:59.420Z,96.60
2019-04-16T11:36:30.990Z,94.40
2019-04-16T11:39:00.767Z,95.40
2019-04-16T11:41:30.400Z,99.90
2019-04-16T11:44:14.240Z,97.00
2019-04-16T11:46:31.596Z,93.60
2019-04-16T11:49:01.297Z,96.10
2019-04-16T11:51:32.246Z,94.50
2019-04-16T11:54:01.944Z,95.00
2019-04-16T11:56:31.658Z,91.90
2019-04-16T11:59:01.405Z,97.40
2019-04-16T12:01:32.820Z,93.30
2019-04-16T12:04:04.411Z,91.90
2019-04-16T12:06:36.244Z,94.60
2019-04-16T12:09:11.062Z,92.00
2019-04-16T12:11:42.454Z,95.00
2019-04-16T12:14:11.957Z,92.30
2019-04-16T12:16:43.285Z,93.20
2019-04-16T12:19:14.762Z,91.90
2019-04-16T12:21:46.104Z,89.60
2019-04-16T12:24:18.661Z,84.70
2019-04-16T12:26:50.288Z,99.90
2019-04-16T12:29:23.260Z,92.00
2019-04-16T12:31:54.790Z,90.60
2019-04-16T12:34:26.157Z,95.90
2019-04-16T12:36:57.495Z,87.20
2019-04-16T12:39:28.974Z,91.10
2019-04-16T12:42:00.436Z,95.00
2019-04-16T12:44:44.517Z,88.10
2019-04-16T12:47:03.433Z,91.00
2019-04-16T12:49:34.900Z,90.00
2019-04-16T12:52:07.210Z,87.20
2019-04-16T12:54:38.637Z,87.10
2019-04-16T12:57:14.011Z,85.60
2019-04-16T12:59:42.970Z,87.80
2019-04-16T13:02:14.984Z,94.20
2019-04-16T13:04:48.799Z,89.00
2019-04-16T13:07:19.563Z,87.40
2019-04-16T13:09:51.047Z,89.80
2019-04-16T13:12:22.307Z,89.40
2019-04-16T13:15:00.445Z,82.20
2019-04-16T13:17:24.961Z,82.10
2019-04-16T13:19:56.195Z,81.90
2019-04-16T13:22:27.545Z,84.10
2019-04-16T13:24:58.913Z,75.40
2019-04-16T13:27:30.417Z,82.70
2019-04-16T13:30:03.418Z,80.80
2019-04-16T13:32:33.428Z,81.40
2019-04-16T13:35:03.554Z,75.90
2019-04-16T13:37:36.887Z,74.60
2019-04-16T13:40:11.158Z,76.40
2019-04-16T13:42:41.132Z,81.90
2019-04-16T13:45:17.911Z,86.70
2019-04-16T13:47:47.415Z,72.10
2019-04-16T13:50:19.068Z,71.40
2019-04-16T13:52:52.003Z,74.80
2019-04-16T13:55:23.672Z,84.40
2019-04-16T13:57:55.106Z,72.00
2019-04-16T14:00:26.632Z,82.10
2019-04-16T14:06:09.340Z,82.60
2019-04-16T14:09:16.010Z,74.30
2019-04-16T14:16:32.698Z,77.20
2019-04-16T14:19:06.985Z,76.40
2019-04-16T14:21:40.424Z,70.10
2019-04-16T14:24:20.303Z,65.70
2019-04-16T14:34:05.479Z,69.10
2019-04-16T14:36:35.307Z,73.80
2019-04-16T14:39:09.043Z,63.50
2019-04-16T14:41:38.669Z,78.90
2019-04-16T14:44:09.966Z,70.20
2019-04-16T14:46:39.879Z,71.10
2019-04-16T14:49:09.599Z,71.80
2019-04-16T14:51:39.313Z,66.70
2019-04-16T14:54:10.644Z,68.30
2019-04-16T14:56:42.024Z,72.50
2019-04-16T14:59:26.782Z,68.60
2019-04-16T15:01:46.292Z,69.20
2019-04-16T15:04:17.619Z,74.40
2019-04-16T15:06:52.371Z,71.10
2019-04-16T15:09:21.904Z,70.30
2019-04-16T15:11:53.135Z,69.30
2019-04-16T15:14:26.077Z,75.10
2019-04-16T15:16:55.440Z,75.50
2019-04-16T15:19:26.739Z,77.60
2019-04-16T15:21:58.128Z,72.60
2019-04-16T15:24:29.399Z,70.00
2019-04-16T15:27:00.824Z,66.30
2019-04-16T15:29:32.980Z,67.40
2019-04-16T15:32:06.002Z,66.50
2019-04-16T15:34:41.874Z,66.60
2019-04-16T15:37:10.716Z,66.80
2019-04-16T15:39:41.970Z,65.80
2019-04-16T15:42:16.323Z,65.00
2019-04-16T15:44:46.228Z,68.30
2019-04-16T15:47:17.518Z,65.30
2019-04-16T15:49:49.644Z,69.80
2019-04-16T15:52:21.563Z,65.50
2019-04-16T15:54:52.798Z,65.70
2019-04-16T15:57:24.283Z,72.20
2019-04-16T15:59:55.513Z,61.50
2019-04-16T16:02:24.917Z,62.40
2019-04-16T16:04:56.163Z,63.70
2019-04-16T16:07:26.500Z,69.80
2019-04-16T16:09:59.037Z,62.70
2019-04-16T16:12:29.571Z,59.70
2019-04-16T16:14:59.225Z,59.60
2019-04-16T16:17:28.836Z,63.40
2019-04-16T16:19:58.596Z,64.80
2019-04-16T16:22:30.299Z,61.40
2019-04-16T16:25:00.151Z,58.30
2019-04-16T16:27:29.940Z,56.90
2019-04-16T16:29:59.593Z,58.90
2019-04-16T16:32:29.186Z,60.40
2019-04-16T16:35:02.149Z,62.90
2019-04-16T16:37:33.853Z,63.30
2019-04-16T16:40:05.130Z,62.70
2019-04-16T16:42:34.731Z,64.90
2019-04-16T16:45:06.737Z,64.20
2019-04-16T16:47:40.271Z,65.60
2019-04-16T16:50:12.833Z,64.40
2019-04-16T16:52:42.325Z,64.40
2019-04-16T16:55:13.802Z,68.80
2019-04-16T16:57:45.283Z,64.60
2019-04-16T17:00:20.785Z,65.60
2019-04-16T17:02:51.235Z,65.10
2019-04-16T17:05:24.069Z,65.50
2019-04-16T17:07:55.130Z,64.00
2019-04-16T17:10:24.782Z,69.10
2019-04-16T17:12:54.405Z,68.50
2019-04-16T17:15:24.029Z,70.40
2019-04-16T17:17:53.711Z,70.10
2019-04-16T17:20:23.405Z,71.90
2019-04-16T17:22:53.682Z,71.20
2019-04-16T17:25:35.559Z,72.90
2019-04-16T17:27:54.901Z,69.80
2019-04-16T17:30:24.651Z,73.90
2019-04-16T17:32:55.854Z,71.80
2019-04-16T17:35:25.643Z,74.90
2019-04-16T17:37:55.392Z,78.20
2019-04-16T17:40:26.661Z,78.80
2019-04-16T17:42:57.963Z,78.10
2019-04-16T17:45:29.291Z,79.20
2019-04-16T17:48:00.572Z,81.20
2019-04-16T17:50:31.835Z,82.30
2019-04-16T17:53:03.293Z,83.60
2019-04-16T17:55:34.775Z,86.80
2019-04-16T17:58:06.196Z,84.90
2019-04-16T18:00:37.722Z,88.80
2019-04-16T18:03:10.664Z,88.60
2019-04-16T18:05:41.907Z,91.20
2019-04-16T18:08:13.291Z,92.20
2019-04-16T18:10:44.514Z,95.50
2019-04-16T18:13:17.692Z,91.50
2019-04-16T18:15:50.672Z,92.20
2019-04-16T18:18:24.049Z,90.50
2019-04-16T18:20:58.648Z,89.10
2019-04-16T18:23:28.499Z,89.70
2019-04-16T18:25:59.734Z,90.00
2019-04-16T18:28:31.039Z,90.60
2019-04-16T18:31:02.488Z,91.40
2019-04-16T18:33:33.915Z,94.40
2019-04-16T18:36:05.522Z,94.90
2019-04-16T18:38:36.859Z,96.10
2019-04-16T18:41:08.172Z,97.00
2019-04-16T18:43:40.213Z,98.30
2019-04-16T18:46:15.183Z,99.90
2019-04-16T18:48:47.203Z,99.90
2019-04-16T18:51:17.001Z,98.30
2019-04-16T18:53:46.821Z,99.30
2019-04-16T18:56:16.484Z,99.30
2019-04-16T18:58:48.682Z,99.30
2019-04-16T19:01:20.135Z,99.90
2019-04-16T19:03:49.903Z,99.90
2019-04-16T19:06:20.825Z,99.90
2019-04-16T19:08:50.811Z,99.90
2019-04-16T19:11:20.702Z,99.90
2019-04-16T19:13:50.368Z,99.90
2019-04-16T19:16:20.417Z,99.90
2019-04-16T19:18:50.327Z,99.90
2019-04-16T19:21:20.816Z,99.90
2019-04-16T19:23:50.498Z,99.90
2019-04-16T19:26:20.272Z,99.90
2019-04-16T19:28:50.007Z,99.90
2019-04-16T19:31:22.848Z,99.90
2019-04-16T19:33:51.192Z,99.90
2019-04-16T19:36:24.722Z,99.90
2019-04-16T19:38:52.266Z,99.90
2019-04-16T19:41:24.382Z,99.90
2019-04-16T19:43:55.029Z,99.90
2019-04-16T19:46:24.840Z,99.90
2019-04-16T19:48:56.641Z,99.90
2019-04-16T19:51:26.077Z,99.90
2019-04-16T19:53:57.057Z,99.90
2019-04-16T19:56:26.961Z,99.90
2019-04-16T19:58:58.659Z,99.90
2019-04-16T20:01:28.725Z,99.90
2019-04-16T20:03:59.650Z,99.90
2019-04-16T20:06:29.771Z,99.90
2019-04-16T20:09:00.979Z,99.90
2019-04-16T20:11:30.541Z,99.90
2019-04-16T20:14:03.412Z,99.90
2019-04-16T20:16:34.375Z,99.90
2019-04-16T20:19:05.631Z,99.90
2019-04-16T20:21:37.890Z,99.90
2019-04-16T20:24:10.917Z,99.90
2019-04-16T20:26:41.695Z,99.90
2019-04-16T20:29:13.736Z,99.90
2019-04-16T20:31:43.471Z,99.90
2019-04-16T20:34:13.361Z,99.90
2019-04-16T20:36:42.988Z,99.90
2019-04-16T20:39:12.594Z,99.90
2019-04-16T20:41:42.248Z,99.90
2019-04-16T20:44:11.855Z,99.90
2019-04-16T20:46:43.067Z,99.90
2019-04-16T20:49:16.862Z,99.90
2019-04-16T20:51:45.564Z,99.90
2019-04-16T20:54:15.202Z,99.90
2019-04-16T20:56:46.372Z,99.90
2019-04-16T20:59:16.020Z,99.90
2019-04-16T21:01:45.676Z,99.90
2019-04-16T21:04:16.870Z,99.90
2019-04-16T21:06:46.578Z,99.90
2019-04-16T21:09:16.204Z,99.90
2019-04-16T21:11:45.775Z,99.90
2019-04-16T21:14:15.425Z,99.90
2019-04-16T21:16:45.162Z,99.90
2019-04-16T21:19:22.864Z,99.90
2019-04-16T21:21:46.126Z,99.90
2019-04-16T21:24:15.767Z,99.90
2019-04-16T21:26:45.380Z,99.90
2019-04-16T21:29:16.923Z,99.90
2019-04-16T21:31:48.417Z,99.90
2019-04-16T21:34:24.315Z,99.90
2019-04-16T21:36:52.741Z,99.90
2019-04-16T21:39:24.107Z,99.90
2019-04-16T21:42:01.308Z,99.90
2019-04-16T21:44:26.783Z,99.90
2019-04-16T21:46:58.174Z,99.90
2019-04-16T21:49:38.500Z,99.90
2019-04-16T21:52:00.777Z,99.90
2019-04-16T21:54:30.691Z,99.90
2019-04-16T21:57:01.324Z,99.90
2019-04-16T21:59:31.140Z,99.90
2019-04-16T22:02:05.334Z,99.90
2019-04-16T22:04:38.481Z,99.90
2019-04-16T22:07:08.768Z,99.90
2019-04-16T22:09:38.695Z,99.90
2019-04-16T22:12:08.287Z,99.90
2019-04-16T22:14:38.102Z,99.90
2019-04-16T22:17:07.790Z,99.90
2019-04-16T22:19:52.959Z,99.90
2019-04-16T22:22:11.698Z,99.90
2019-04-16T22:24:43.047Z,99.90
2019-04-16T22:27:13.208Z,99.90
2019-04-16T22:29:47.291Z,99.90
2019-04-16T22:32:15.872Z,99.90
2019-04-16T22:34:47.245Z,99.90
2019-04-16T22:37:16.881Z,99.90
2019-04-16T22:39:50.800Z,99.90
2019-04-16T22:42:21.211Z,99.90
2019-04-16T22:44:52.502Z,99.90
2019-04-16T22:47:23.742Z,99.90
2019-04-16T22:49:55.117Z,99.90
2019-04-16T22:52:24.751Z,99.90
2019-04-16T22:54:56.561Z,99.90
2019-04-16T22:57:26.181Z,99.90
2019-04-16T22:59:55.763Z,99.90
2019-04-16T23:02:27.979Z,99.90
2019-04-16T23:04:59.420Z,99.90
2019-04-16T23:07:29.139Z,99.90
2019-04-16T23:10:00.079Z,99.90
2019-04-16T23:12:29.820Z,99.90
2019-04-16T23:14:59.497Z,99.90
2019-04-16T23:17:29.117Z,99.90
2019-04-16T23:19:59.002Z,99.90
2019-04-16T23:22:28.799Z,99.90
2019-04-16T23:24:59.398Z,99.90
2019-04-16T23:27:29.026Z,99.90
2019-04-16T23:29:58.722Z,99.90
2019-04-16T23:32:28.837Z,99.90
2019-04-16T23:34:58.650Z,99.90
2019-04-16T23:37:28.598Z,99.90
2019-04-16T23:39:58.310Z,99.90
2019-04-16T23:42:30.509Z,99.90
2019-04-16T23:45:02.481Z,99.90
2019-04-16T23:47:33.818Z,99.90
2019-04-16T23:50:05.348Z,99.90
2019-04-16T23:52:38.033Z,99.90
2019-04-16T23:55:09.683Z,99.90
2019-04-16T23:57:41.024Z,99.90
